sensor_id;sensor_type;location;lat;lon;timestamp;temperature;humidity
46416;DHT22;32620;51.704;7.822;2022-09-01T00:01:34;15.10;99.90
46416;DHT22;32620;51.704;7.822;2022-09-01T00:04:01;15.10;99.90
46416;DHT22;32620;51.704;7.822;2022-09-01T00:06:28;15.20;99.90
46416;DHT22;32620;51.704;7.822;2022-09-01T00:08:55;15.10;99.90
46416;DHT22;32620;51.704;7.822;2022-09-01T00:11:22;15.20;99.90
46416;DHT22;32620;51.704;7.822;2022-09-01T00:13:48;15.20;99.90
46416;DHT22;32620;51.704;7.822;2022-09-01T00:16:14;15.10;99.90
46416;DHT22;32620;51.704;7.822;2022-09-01T00:18:42;15.20;99.90
46416;DHT22;32620;51.704;7.822;2022-09-01T00:21:10;15.20;99.90
46416;DHT22;32620;51.704;7.822;2022-09-01T00:23:36;15.20;99.90
46416;DHT22;32620;51.704;7.822;2022-09-01T00:26:02;15.10;99.90
46416;DHT22;32620;51.704;7.822;2022-09-01T00:28:27;15.10;99.90
46416;DHT22;32620;51.704;7.822;2022-09-01T00:30:53;15.20;99.90
46416;DHT22;32620;51.704;7.822;2022-09-01T00:33:18;15.10;99.90
46416;DHT22;32620;51.704;7.822;2022-09-01T00:35:44;15.10;99.90
46416;DHT22;32620;51.704;7.822;2022-09-01T00:38:09;15.10;99.90
46416;DHT22;32620;51.704;7.822;2022-09-01T00:40:35;15.00;99.90
46416;DHT22;32620;51.704;7.822;2022-09-01T00:43:09;15.00;99.90
46416;DHT22;32620;51.704;7.822;2022-09-01T00:45:35;15.00;99.90
46416;DHT22;32620;51.704;7.822;2022-09-01T00:48:00;14.90;99.90
46416;DHT22;32620;51.704;7.822;2022-09-01T00:50:30;14.90;99.90
46416;DHT22;32620;51.704;7.822;2022-09-01T00:52:55;14.80;99.90
46416;DHT22;32620;51.704;7.822;2022-09-01T00:55:22;14.70;99.90
46416;DHT22;32620;51.704;7.822;2022-09-01T00:57:48;14.70;99.90
46416;DHT22;32620;51.704;7.822;2022-09-01T01:00:16;14.70;99.90
46416;DHT22;32620;51.704;7.822;2022-09-01T01:02:42;14.70;99.90
46416;DHT22;32620;51.704;7.822;2022-09-01T01:05:09;14.70;99.90
46416;DHT22;32620;51.704;7.822;2022-09-01T01:07:35;14.70;99.90
46416;DHT22;32620;51.704;7.822;2022-09-01T01:10:08;14.60;99.90
46416;DHT22;32620;51.704;7.822;2022-09-01T01:12:37;14.60;99.90
46416;DHT22;32620;51.704;7.822;2022-09-01T01:15:05;14.50;99.90
46416;DHT22;32620;51.704;7.822;2022-09-01T01:17:31;14.50;99.90
46416;DHT22;32620;51.704;7.822;2022-09-01T01:19:57;14.50;99.90
46416;DHT22;32620;51.704;7.822;2022-09-01T01:22:52;14.40;99.90
46416;DHT22;32620;51.704;7.822;2022-09-01T01:28:08;14.40;99.90
46416;DHT22;32620;51.704;7.822;2022-09-01T01:30:34;14.30;99.90
46416;DHT22;32620;51.704;7.822;2022-09-01T01:33:02;14.30;99.90
46416;DHT22;32620;51.704;7.822;2022-09-01T01:35:30;14.30;99.90
46416;DHT22;32620;51.704;7.822;2022-09-01T01:37:58;14.30;99.90
46416;DHT22;32620;51.704;7.822;2022-09-01T01:40:24;14.30;99.90
46416;DHT22;32620;51.704;7.822;2022-09-01T01:42:51;14.30;99.90
46416;DHT22;32620;51.704;7.822;2022-09-01T01:45:18;14.30;99.90
46416;DHT22;32620;51.704;7.822;2022-09-01T01:47:46;14.30;99.90
46416;DHT22;32620;51.704;7.822;2022-09-01T01:50:18;14.30;99.90
46416;DHT22;32620;51.704;7.822;2022-09-01T01:52:44;14.20;99.90
46416;DHT22;32620;51.704;7.822;2022-09-01T01:55:10;14.20;99.90
46416;DHT22;32620;51.704;7.822;2022-09-01T01:57:38;14.20;99.90
46416;DHT22;32620;51.704;7.822;2022-09-01T02:00:04;14.20;99.90
46416;DHT22;32620;51.704;7.822;2022-09-01T02:02:29;14.20;99.90
46416;DHT22;32620;51.704;7.822;2022-09-01T02:04:56;14.20;99.90
46416;DHT22;32620;51.704;7.822;2022-09-01T02:07:21;14.20;99.90
46416;DHT22;32620;51.704;7.822;2022-09-01T02:09:47;14.20;99.90
46416;DHT22;32620;51.704;7.822;2022-09-01T02:12:13;14.20;99.90
46416;DHT22;32620;51.704;7.822;2022-09-01T02:14:43;14.10;99.90
46416;DHT22;32620;51.704;7.822;2022-09-01T02:17:08;14.10;99.90
46416;DHT22;32620;51.704;7.822;2022-09-01T02:19:34;14.00;99.90
46416;DHT22;32620;51.704;7.822;2022-09-01T02:22:02;14.00;99.90
46416;DHT22;32620;51.704;7.822;2022-09-01T02:24:28;13.90;99.90
46416;DHT22;32620;51.704;7.822;2022-09-01T02:26:56;13.90;99.90
46416;DHT22;32620;51.704;7.822;2022-09-01T02:29:25;13.80;99.90
46416;DHT22;32620;51.704;7.822;2022-09-01T02:31:53;13.80;99.90
46416;DHT22;32620;51.704;7.822;2022-09-01T02:34:20;13.80;99.90
46416;DHT22;32620;51.704;7.822;2022-09-01T02:36:46;13.80;99.90
46416;DHT22;32620;51.704;7.822;2022-09-01T02:39:13;13.80;99.90
46416;DHT22;32620;51.704;7.822;2022-09-01T02:41:39;13.80;99.90
46416;DHT22;32620;51.704;7.822;2022-09-01T02:44:05;13.80;99.90
46416;DHT22;32620;51.704;7.822;2022-09-01T02:46:36;13.70;99.90
46416;DHT22;32620;51.704;7.822;2022-09-01T02:49:06;13.70;99.90
46416;DHT22;32620;51.704;7.822;2022-09-01T02:51:43;13.70;99.90
46416;DHT22;32620;51.704;7.822;2022-09-01T02:54:09;13.70;99.90
46416;DHT22;32620;51.704;7.822;2022-09-01T02:56:35;13.80;99.90
46416;DHT22;32620;51.704;7.822;2022-09-01T02:59:00;13.80;99.90
46416;DHT22;32620;51.704;7.822;2022-09-01T03:01:28;13.80;99.90
46416;DHT22;32620;51.704;7.822;2022-09-01T03:03:55;13.80;99.90
46416;DHT22;32620;51.704;7.822;2022-09-01T03:06:21;13.80;99.90
46416;DHT22;32620;51.704;7.822;2022-09-01T03:08:49;13.80;99.90
46416;DHT22;32620;51.704;7.822;2022-09-01T03:11:15;13.80;99.90
46416;DHT22;32620;51.704;7.822;2022-09-01T03:13:41;13.80;99.90
46416;DHT22;32620;51.704;7.822;2022-09-01T03:16:07;13.70;99.90
46416;DHT22;32620;51.704;7.822;2022-09-01T03:18:33;13.70;99.90
46416;DHT22;32620;51.704;7.822;2022-09-01T03:20:59;13.70;99.90
46416;DHT22;32620;51.704;7.822;2022-09-01T03:23:26;13.60;99.90
46416;DHT22;32620;51.704;7.822;2022-09-01T03:25:52;13.50;99.90
46416;DHT22;32620;51.704;7.822;2022-09-01T03:28:18;13.50;99.90
46416;DHT22;32620;51.704;7.822;2022-09-01T03:30:45;13.50;99.90
46416;DHT22;32620;51.704;7.822;2022-09-01T03:33:11;13.50;99.90
46416;DHT22;32620;51.704;7.822;2022-09-01T03:35:36;13.50;99.90
46416;DHT22;32620;51.704;7.822;2022-09-01T03:38:02;13.50;99.90
46416;DHT22;32620;51.704;7.822;2022-09-01T03:40:29;13.50;99.90
46416;DHT22;32620;51.704;7.822;2022-09-01T03:42:57;13.40;99.90
46416;DHT22;32620;51.704;7.822;2022-09-01T03:45:23;13.30;99.90
46416;DHT22;32620;51.704;7.822;2022-09-01T03:47:50;13.20;99.90
46416;DHT22;32620;51.704;7.822;2022-09-01T03:50:18;13.10;99.90
46416;DHT22;32620;51.704;7.822;2022-09-01T03:52:48;13.00;99.90
46416;DHT22;32620;51.704;7.822;2022-09-01T03:55:16;12.90;99.90
46416;DHT22;32620;51.704;7.822;2022-09-01T03:57:44;12.90;99.90
46416;DHT22;32620;51.704;7.822;2022-09-01T04:00:11;12.90;99.90
46416;DHT22;32620;51.704;7.822;2022-09-01T04:02:45;12.90;99.90
46416;DHT22;32620;51.704;7.822;2022-09-01T04:05:11;12.90;99.90
46416;DHT22;32620;51.704;7.822;2022-09-01T04:07:37;12.80;99.90
46416;DHT22;32620;51.704;7.822;2022-09-01T04:10:03;12.80;99.90
46416;DHT22;32620;51.704;7.822;2022-09-01T04:12:29;12.80;99.90
46416;DHT22;32620;51.704;7.822;2022-09-01T04:14:55;12.90;99.90
46416;DHT22;32620;51.704;7.822;2022-09-01T04:17:20;13.00;99.90
46416;DHT22;32620;51.704;7.822;2022-09-01T04:20:06;12.90;99.90
46416;DHT22;32620;51.704;7.822;2022-09-01T04:22:33;12.80;99.90
46416;DHT22;32620;51.704;7.822;2022-09-01T04:25:03;12.70;99.90
46416;DHT22;32620;51.704;7.822;2022-09-01T04:27:28;12.60;99.90
46416;DHT22;32620;51.704;7.822;2022-09-01T04:29:54;12.60;99.90
46416;DHT22;32620;51.704;7.822;2022-09-01T04:32:21;12.60;99.90
46416;DHT22;32620;51.704;7.822;2022-09-01T04:34:48;12.50;99.90
46416;DHT22;32620;51.704;7.822;2022-09-01T04:37:15;12.50;99.90
46416;DHT22;32620;51.704;7.822;2022-09-01T04:39:50;12.50;99.90
46416;DHT22;32620;51.704;7.822;2022-09-01T04:42:17;12.50;99.90
46416;DHT22;32620;51.704;7.822;2022-09-01T04:44:43;12.40;99.90
46416;DHT22;32620;51.704;7.822;2022-09-01T04:47:09;12.50;99.90
46416;DHT22;32620;51.704;7.822;2022-09-01T04:49:42;12.50;99.90
46416;DHT22;32620;51.704;7.822;2022-09-01T04:52:09;12.40;99.90
46416;DHT22;32620;51.704;7.822;2022-09-01T04:54:36;12.50;99.90
46416;DHT22;32620;51.704;7.822;2022-09-01T04:57:02;12.50;99.90
46416;DHT22;32620;51.704;7.822;2022-09-01T04:59:28;12.60;99.90
46416;DHT22;32620;51.704;7.822;2022-09-01T05:01:54;12.60;99.90
46416;DHT22;32620;51.704;7.822;2022-09-01T05:04:22;12.60;99.90
46416;DHT22;32620;51.704;7.822;2022-09-01T05:06:50;12.60;99.90
46416;DHT22;32620;51.704;7.822;2022-09-01T05:09:17;12.60;99.90
46416;DHT22;32620;51.704;7.822;2022-09-01T05:11:43;12.60;99.90
46416;DHT22;32620;51.704;7.822;2022-09-01T05:14:11;12.60;99.90
46416;DHT22;32620;51.704;7.822;2022-09-01T05:16:37;12.60;99.90
46416;DHT22;32620;51.704;7.822;2022-09-01T05:19:06;12.60;99.90
46416;DHT22;32620;51.704;7.822;2022-09-01T05:21:31;12.60;99.90
46416;DHT22;32620;51.704;7.822;2022-09-01T05:23:57;12.70;99.90
46416;DHT22;32620;51.704;7.822;2022-09-01T05:26:26;12.80;99.90
46416;DHT22;32620;51.704;7.822;2022-09-01T05:28:54;12.90;99.90
46416;DHT22;32620;51.704;7.822;2022-09-01T05:31:20;13.00;99.90
46416;DHT22;32620;51.704;7.822;2022-09-01T05:33:47;13.10;99.90
46416;DHT22;32620;51.704;7.822;2022-09-01T05:36:15;13.10;99.90
46416;DHT22;32620;51.704;7.822;2022-09-01T05:38:42;13.20;99.90
46416;DHT22;32620;51.704;7.822;2022-09-01T05:41:09;13.30;99.90
46416;DHT22;32620;51.704;7.822;2022-09-01T05:43:42;13.40;99.90
46416;DHT22;32620;51.704;7.822;2022-09-01T05:46:15;13.50;99.90
46416;DHT22;32620;51.704;7.822;2022-09-01T05:48:41;13.80;99.90
46416;DHT22;32620;51.704;7.822;2022-09-01T05:51:08;15.90;99.90
46416;DHT22;32620;51.704;7.822;2022-09-01T05:53:33;16.20;99.90
46416;DHT22;32620;51.704;7.822;2022-09-01T05:56:00;18.70;99.90
46416;DHT22;32620;51.704;7.822;2022-09-01T05:58:32;20.90;99.90
46416;DHT22;32620;51.704;7.822;2022-09-01T06:00:58;21.80;96.60
46416;DHT22;32620;51.704;7.822;2022-09-01T06:03:25;22.70;94.00
46416;DHT22;32620;51.704;7.822;2022-09-01T06:05:52;24.20;91.60
46416;DHT22;32620;51.704;7.822;2022-09-01T06:08:22;24.30;87.70
46416;DHT22;32620;51.704;7.822;2022-09-01T06:10:49;24.00;89.40
46416;DHT22;32620;51.704;7.822;2022-09-01T06:13:16;23.90;87.50
46416;DHT22;32620;51.704;7.822;2022-09-01T06:15:43;24.90;84.60
46416;DHT22;32620;51.704;7.822;2022-09-01T06:18:10;25.90;82.90
46416;DHT22;32620;51.704;7.822;2022-09-01T06:20:37;26.10;80.00
46416;DHT22;32620;51.704;7.822;2022-09-01T06:23:04;26.20;78.30
46416;DHT22;32620;51.704;7.822;2022-09-01T06:25:30;26.90;76.80
46416;DHT22;32620;51.704;7.822;2022-09-01T06:27:56;27.20;75.10
46416;DHT22;32620;51.704;7.822;2022-09-01T06:30:21;27.30;73.10
46416;DHT22;32620;51.704;7.822;2022-09-01T06:32:49;27.00;73.60
46416;DHT22;32620;51.704;7.822;2022-09-01T06:35:16;27.50;72.80
46416;DHT22;32620;51.704;7.822;2022-09-01T06:37:42;27.10;72.90
46416;DHT22;32620;51.704;7.822;2022-09-01T06:40:08;27.40;71.50
46416;DHT22;32620;51.704;7.822;2022-09-01T06:42:35;27.10;73.00
46416;DHT22;32620;51.704;7.822;2022-09-01T06:45:02;27.50;70.90
46416;DHT22;32620;51.704;7.822;2022-09-01T06:47:27;27.40;70.90
46416;DHT22;32620;51.704;7.822;2022-09-01T06:49:53;27.40;70.50
46416;DHT22;32620;51.704;7.822;2022-09-01T06:52:23;27.60;70.70
46416;DHT22;32620;51.704;7.822;2022-09-01T06:54:48;27.50;70.80
46416;DHT22;32620;51.704;7.822;2022-09-01T06:57:16;28.60;69.20
46416;DHT22;32620;51.704;7.822;2022-09-01T06:59:41;28.50;67.90
46416;DHT22;32620;51.704;7.822;2022-09-01T07:02:07;28.10;68.50
46416;DHT22;32620;51.704;7.822;2022-09-01T07:04:33;28.90;68.50
46416;DHT22;32620;51.704;7.822;2022-09-01T07:06:59;29.00;66.40
46416;DHT22;32620;51.704;7.822;2022-09-01T07:09:24;28.60;66.00
46416;DHT22;32620;51.704;7.822;2022-09-01T07:11:50;28.70;66.40
46416;DHT22;32620;51.704;7.822;2022-09-01T07:14:17;28.20;67.10
46416;DHT22;32620;51.704;7.822;2022-09-01T07:16:43;29.20;65.90
46416;DHT22;32620;51.704;7.822;2022-09-01T07:19:11;29.30;65.00
46416;DHT22;32620;51.704;7.822;2022-09-01T07:21:39;29.30;64.70
46416;DHT22;32620;51.704;7.822;2022-09-01T07:24:05;29.20;65.20
46416;DHT22;32620;51.704;7.822;2022-09-01T07:26:31;29.80;62.20
46416;DHT22;32620;51.704;7.822;2022-09-01T07:29:00;29.60;63.00
46416;DHT22;32620;51.704;7.822;2022-09-01T07:31:29;30.10;61.60
46416;DHT22;32620;51.704;7.822;2022-09-01T07:33:58;28.80;62.00
46416;DHT22;32620;51.704;7.822;2022-09-01T07:36:24;28.60;64.10
46416;DHT22;32620;51.704;7.822;2022-09-01T07:38:49;28.40;63.80
46416;DHT22;32620;51.704;7.822;2022-09-01T07:41:19;28.70;63.80
46416;DHT22;32620;51.704;7.822;2022-09-01T07:43:45;28.10;64.60
46416;DHT22;32620;51.704;7.822;2022-09-01T07:46:11;28.90;64.00
46416;DHT22;32620;51.704;7.822;2022-09-01T07:48:36;29.10;62.80
46416;DHT22;32620;51.704;7.822;2022-09-01T07:51:03;28.40;63.50
46416;DHT22;32620;51.704;7.822;2022-09-01T07:53:29;28.90;64.00
46416;DHT22;32620;51.704;7.822;2022-09-01T07:55:56;28.60;63.20
46416;DHT22;32620;51.704;7.822;2022-09-01T07:58:24;29.50;64.10
46416;DHT22;32620;51.704;7.822;2022-09-01T08:00:50;29.00;62.90
46416;DHT22;32620;51.704;7.822;2022-09-01T08:03:18;28.70;63.90
46416;DHT22;32620;51.704;7.822;2022-09-01T08:05:43;29.60;62.00
46416;DHT22;32620;51.704;7.822;2022-09-01T08:08:09;29.50;61.00
46416;DHT22;32620;51.704;7.822;2022-09-01T08:10:39;29.90;60.50
46416;DHT22;32620;51.704;7.822;2022-09-01T08:13:05;29.70;61.50
46416;DHT22;32620;51.704;7.822;2022-09-01T08:15:30;28.60;61.60
46416;DHT22;32620;51.704;7.822;2022-09-01T08:17:56;28.70;63.10
46416;DHT22;32620;51.704;7.822;2022-09-01T08:20:21;29.10;62.70
46416;DHT22;32620;51.704;7.822;2022-09-01T08:22:47;29.40;61.30
46416;DHT22;32620;51.704;7.822;2022-09-01T08:25:14;30.00;61.40
46416;DHT22;32620;51.704;7.822;2022-09-01T08:27:40;30.30;61.00
46416;DHT22;32620;51.704;7.822;2022-09-01T08:30:07;29.80;59.30
46416;DHT22;32620;51.704;7.822;2022-09-01T08:32:33;28.70;61.20
46416;DHT22;32620;51.704;7.822;2022-09-01T08:34:59;28.80;62.10
46416;DHT22;32620;51.704;7.822;2022-09-01T08:37:25;29.30;61.70
46416;DHT22;32620;51.704;7.822;2022-09-01T08:39:51;28.80;60.80
46416;DHT22;32620;51.704;7.822;2022-09-01T08:42:21;28.30;63.10
46416;DHT22;32620;51.704;7.822;2022-09-01T08:47:21;28.10;62.80
46416;DHT22;32620;51.704;7.822;2022-09-01T08:49:46;28.70;63.50
46416;DHT22;32620;51.704;7.822;2022-09-01T08:52:33;28.30;64.50
46416;DHT22;32620;51.704;7.822;2022-09-01T08:55:31;28.90;62.80
46416;DHT22;32620;51.704;7.822;2022-09-01T08:57:46;29.50;62.20
46416;DHT22;32620;51.704;7.822;2022-09-01T09:00:16;29.70;60.70
46416;DHT22;32620;51.704;7.822;2022-09-01T09:13:17;29.60;63.40
46416;DHT22;32620;51.704;7.822;2022-09-01T09:15:53;28.80;62.60
46416;DHT22;32620;51.704;7.822;2022-09-01T09:18:52;27.80;64.90
46416;DHT22;32620;51.704;7.822;2022-09-01T09:21:08;28.20;64.10
46416;DHT22;32620;51.704;7.822;2022-09-01T09:23:38;29.10;63.60
46416;DHT22;32620;51.704;7.822;2022-09-01T09:26:05;28.60;63.20
46416;DHT22;32620;51.704;7.822;2022-09-01T09:28:30;28.40;63.60
46416;DHT22;32620;51.704;7.822;2022-09-01T09:31:23;28.10;64.60
46416;DHT22;32620;51.704;7.822;2022-09-01T09:33:41;28.40;64.30
46416;DHT22;32620;51.704;7.822;2022-09-01T09:36:16;28.00;65.70
46416;DHT22;32620;51.704;7.822;2022-09-01T09:38:43;28.40;66.10
46416;DHT22;32620;51.704;7.822;2022-09-01T09:41:16;28.90;65.00
46416;DHT22;32620;51.704;7.822;2022-09-01T09:43:44;29.40;65.40
46416;DHT22;32620;51.704;7.822;2022-09-01T09:46:27;28.90;65.80
46416;DHT22;32620;51.704;7.822;2022-09-01T09:49:28;28.70;65.90
46416;DHT22;32620;51.704;7.822;2022-09-01T09:51:44;28.50;66.50
46416;DHT22;32620;51.704;7.822;2022-09-01T09:54:17;28.00;67.50
46416;DHT22;32620;51.704;7.822;2022-09-01T09:56:43;28.70;67.90
46416;DHT22;32620;51.704;7.822;2022-09-01T09:59:17;28.50;66.70
46416;DHT22;32620;51.704;7.822;2022-09-01T10:01:43;28.30;67.10
46416;DHT22;32620;51.704;7.822;2022-09-01T10:04:08;28.20;66.90
46416;DHT22;32620;51.704;7.822;2022-09-01T10:06:35;28.40;68.00
46416;DHT22;32620;51.704;7.822;2022-09-01T10:09:04;28.60;67.10
46416;DHT22;32620;51.704;7.822;2022-09-01T10:11:32;28.20;66.00
46416;DHT22;32620;51.704;7.822;2022-09-01T10:14:00;26.40;68.80
46416;DHT22;32620;51.704;7.822;2022-09-01T10:16:27;26.90;71.20
46416;DHT22;32620;51.704;7.822;2022-09-01T10:18:53;27.50;68.40
46416;DHT22;32620;51.704;7.822;2022-09-01T10:21:27;28.70;67.80
46416;DHT22;32620;51.704;7.822;2022-09-01T10:23:56;29.10;64.70
46416;DHT22;32620;51.704;7.822;2022-09-01T10:26:23;29.40;61.30
46416;DHT22;32620;51.704;7.822;2022-09-01T10:28:51;28.10;62.40
46416;DHT22;32620;51.704;7.822;2022-09-01T10:31:21;27.80;64.00
46416;DHT22;32620;51.704;7.822;2022-09-01T10:33:47;27.70;65.10
46416;DHT22;32620;51.704;7.822;2022-09-01T10:36:12;26.70;66.50
46416;DHT22;32620;51.704;7.822;2022-09-01T10:38:40;26.00;69.00
46416;DHT22;32620;51.704;7.822;2022-09-01T10:41:06;26.00;69.00
46416;DHT22;32620;51.704;7.822;2022-09-01T10:48:48;26.30;67.30
46416;DHT22;32620;51.704;7.822;2022-09-01T10:53:44;27.30;64.80
46416;DHT22;32620;51.704;7.822;2022-09-01T10:58:44;26.80;65.40
46416;DHT22;32620;51.704;7.822;2022-09-01T11:01:12;26.70;65.90
46416;DHT22;32620;51.704;7.822;2022-09-01T11:03:53;26.30;66.20
46416;DHT22;32620;51.704;7.822;2022-09-01T11:09:04;25.80;65.90
46416;DHT22;32620;51.704;7.822;2022-09-01T11:11:40;25.20;67.90
46416;DHT22;32620;51.704;7.822;2022-09-01T11:14:17;24.90;70.20
46416;DHT22;32620;51.704;7.822;2022-09-01T11:16:43;24.60;70.00
46416;DHT22;32620;51.704;7.822;2022-09-01T11:19:32;24.30;73.10
46416;DHT22;32620;51.704;7.822;2022-09-01T11:30:07;25.20;67.50
46416;DHT22;32620;51.704;7.822;2022-09-01T11:32:34;25.20;66.20
46416;DHT22;32620;51.704;7.822;2022-09-01T11:35:01;24.30;67.60
46416;DHT22;32620;51.704;7.822;2022-09-01T11:37:27;23.80;68.80
46416;DHT22;32620;51.704;7.822;2022-09-01T11:39:54;23.90;70.50
46416;DHT22;32620;51.704;7.822;2022-09-01T11:42:21;24.60;68.80
46416;DHT22;32620;51.704;7.822;2022-09-01T11:44:54;25.40;65.90
46416;DHT22;32620;51.704;7.822;2022-09-01T11:47:37;25.60;64.30
46416;DHT22;32620;51.704;7.822;2022-09-01T11:50:07;25.80;63.10
46416;DHT22;32620;51.704;7.822;2022-09-01T11:52:41;26.30;61.40
46416;DHT22;32620;51.704;7.822;2022-09-01T11:55:07;26.20;61.70
46416;DHT22;32620;51.704;7.822;2022-09-01T11:57:36;26.20;61.00
46416;DHT22;32620;51.704;7.822;2022-09-01T12:00:11;26.40;61.80
46416;DHT22;32620;51.704;7.822;2022-09-01T12:02:52;26.30;60.90
46416;DHT22;32620;51.704;7.822;2022-09-01T12:05:35;26.60;61.50
46416;DHT22;32620;51.704;7.822;2022-09-01T12:08:10;26.60;61.60
46416;DHT22;32620;51.704;7.822;2022-09-01T12:10:38;26.40;60.30
46416;DHT22;32620;51.704;7.822;2022-09-01T12:13:07;26.40;59.90
46416;DHT22;32620;51.704;7.822;2022-09-01T12:15:35;26.80;59.20
46416;DHT22;32620;51.704;7.822;2022-09-01T12:18:18;26.20;59.30
46416;DHT22;32620;51.704;7.822;2022-09-01T12:20:44;26.40;61.00
46416;DHT22;32620;51.704;7.822;2022-09-01T12:23:41;26.20;59.90
46416;DHT22;32620;51.704;7.822;2022-09-01T12:25:57;25.90;59.60
46416;DHT22;32620;51.704;7.822;2022-09-01T12:28:23;26.20;60.00
46416;DHT22;32620;51.704;7.822;2022-09-01T12:30:49;26.30;59.30
46416;DHT22;32620;51.704;7.822;2022-09-01T12:33:16;26.20;59.70
46416;DHT22;32620;51.704;7.822;2022-09-01T12:35:42;26.50;59.90
46416;DHT22;32620;51.704;7.822;2022-09-01T12:38:24;26.30;61.70
46416;DHT22;32620;51.704;7.822;2022-09-01T12:40:53;26.50;59.30
46416;DHT22;32620;51.704;7.822;2022-09-01T12:43:35;25.90;60.10
46416;DHT22;32620;51.704;7.822;2022-09-01T12:46:01;26.00;60.40
46416;DHT22;32620;51.704;7.822;2022-09-01T12:48:30;25.90;59.10
46416;DHT22;32620;51.704;7.822;2022-09-01T12:50:58;25.60;60.50
46416;DHT22;32620;51.704;7.822;2022-09-01T12:53:24;25.90;59.30
46416;DHT22;32620;51.704;7.822;2022-09-01T12:55:55;26.20;60.00
46416;DHT22;32620;51.704;7.822;2022-09-01T12:58:24;26.50;58.90
46416;DHT22;32620;51.704;7.822;2022-09-01T13:01:02;26.40;60.40
46416;DHT22;32620;51.704;7.822;2022-09-01T13:03:29;26.20;60.00
46416;DHT22;32620;51.704;7.822;2022-09-01T13:05:56;25.90;61.20
46416;DHT22;32620;51.704;7.822;2022-09-01T13:08:24;26.10;61.60
46416;DHT22;32620;51.704;7.822;2022-09-01T13:10:52;26.20;60.80
46416;DHT22;32620;51.704;7.822;2022-09-01T13:13:19;25.90;61.70
46416;DHT22;32620;51.704;7.822;2022-09-01T13:15:46;26.20;60.60
46416;DHT22;32620;51.704;7.822;2022-09-01T13:18:12;26.10;59.80
46416;DHT22;32620;51.704;7.822;2022-09-01T13:20:38;25.70;58.80
46416;DHT22;32620;51.704;7.822;2022-09-01T13:23:04;25.30;59.50
46416;DHT22;32620;51.704;7.822;2022-09-01T13:25:29;25.00;59.80
46416;DHT22;32620;51.704;7.822;2022-09-01T13:27:55;25.00;59.80
46416;DHT22;32620;51.704;7.822;2022-09-01T13:30:21;25.00;60.40
46416;DHT22;32620;51.704;7.822;2022-09-01T13:32:47;25.00;59.30
46416;DHT22;32620;51.704;7.822;2022-09-01T13:35:15;25.20;59.00
46416;DHT22;32620;51.704;7.822;2022-09-01T13:37:44;25.30;58.90
46416;DHT22;32620;51.704;7.822;2022-09-01T13:40:10;25.70;58.80
46416;DHT22;32620;51.704;7.822;2022-09-01T13:42:40;25.80;58.20
46416;DHT22;32620;51.704;7.822;2022-09-01T13:45:06;25.70;58.20
46416;DHT22;32620;51.704;7.822;2022-09-01T13:47:31;25.60;58.00
46416;DHT22;32620;51.704;7.822;2022-09-01T13:49:58;25.90;58.40
46416;DHT22;32620;51.704;7.822;2022-09-01T13:52:23;26.30;57.40
46416;DHT22;32620;51.704;7.822;2022-09-01T13:54:49;26.60;57.20
46416;DHT22;32620;51.704;7.822;2022-09-01T13:57:15;26.30;58.00
46416;DHT22;32620;51.704;7.822;2022-09-01T13:59:40;25.90;58.80
46416;DHT22;32620;51.704;7.822;2022-09-01T14:02:06;25.70;58.40
46416;DHT22;32620;51.704;7.822;2022-09-01T14:04:32;25.70;59.60
46416;DHT22;32620;51.704;7.822;2022-09-01T14:06:57;25.80;58.90
46416;DHT22;32620;51.704;7.822;2022-09-01T14:09:24;25.70;59.00
46416;DHT22;32620;51.704;7.822;2022-09-01T14:11:52;25.60;59.10
46416;DHT22;32620;51.704;7.822;2022-09-01T14:14:18;25.40;59.80
46416;DHT22;32620;51.704;7.822;2022-09-01T14:16:44;25.30;59.80
46416;DHT22;32620;51.704;7.822;2022-09-01T14:19:10;25.30;59.80
46416;DHT22;32620;51.704;7.822;2022-09-01T14:21:36;25.30;59.70
46416;DHT22;32620;51.704;7.822;2022-09-01T14:24:02;25.10;60.20
46416;DHT22;32620;51.704;7.822;2022-09-01T14:26:27;25.00;60.60
46416;DHT22;32620;51.704;7.822;2022-09-01T14:28:53;25.20;60.10
46416;DHT22;32620;51.704;7.822;2022-09-01T14:31:19;25.10;60.00
46416;DHT22;32620;51.704;7.822;2022-09-01T14:33:45;25.20;59.80
46416;DHT22;32620;51.704;7.822;2022-09-01T14:36:19;25.30;59.30
46416;DHT22;32620;51.704;7.822;2022-09-01T14:38:45;25.20;59.50
46416;DHT22;32620;51.704;7.822;2022-09-01T14:41:12;25.30;59.30
46416;DHT22;32620;51.704;7.822;2022-09-01T14:43:38;25.30;59.10
46416;DHT22;32620;51.704;7.822;2022-09-01T14:46:07;25.30;59.00
46416;DHT22;32620;51.704;7.822;2022-09-01T14:48:35;25.20;59.70
46416;DHT22;32620;51.704;7.822;2022-09-01T14:51:00;25.20;59.20
46416;DHT22;32620;51.704;7.822;2022-09-01T14:53:27;25.30;59.60
46416;DHT22;32620;51.704;7.822;2022-09-01T14:55:54;25.40;59.30
46416;DHT22;32620;51.704;7.822;2022-09-01T14:58:19;25.20;59.10
46416;DHT22;32620;51.704;7.822;2022-09-01T15:00:45;25.20;59.30
46416;DHT22;32620;51.704;7.822;2022-09-01T15:03:12;25.20;59.00
46416;DHT22;32620;51.704;7.822;2022-09-01T15:05:37;25.30;59.20
46416;DHT22;32620;51.704;7.822;2022-09-01T15:08:03;25.10;59.20
46416;DHT22;32620;51.704;7.822;2022-09-01T15:10:29;25.10;58.80
46416;DHT22;32620;51.704;7.822;2022-09-01T15:12:57;25.10;59.30
46416;DHT22;32620;51.704;7.822;2022-09-01T15:15:23;25.30;58.80
46416;DHT22;32620;51.704;7.822;2022-09-01T15:17:49;25.30;58.50
46416;DHT22;32620;51.704;7.822;2022-09-01T15:20:15;25.30;58.90
46416;DHT22;32620;51.704;7.822;2022-09-01T15:23:00;25.30;58.80
46416;DHT22;32620;51.704;7.822;2022-09-01T15:25:26;25.20;58.70
46416;DHT22;32620;51.704;7.822;2022-09-01T15:27:51;25.20;59.30
46416;DHT22;32620;51.704;7.822;2022-09-01T15:30:17;25.20;59.10
46416;DHT22;32620;51.704;7.822;2022-09-01T15:32:44;25.30;58.90
46416;DHT22;32620;51.704;7.822;2022-09-01T15:35:09;25.20;59.00
46416;DHT22;32620;51.704;7.822;2022-09-01T15:37:35;25.10;59.50
46416;DHT22;32620;51.704;7.822;2022-09-01T15:40:00;25.00;61.10
46416;DHT22;32620;51.704;7.822;2022-09-01T15:42:26;24.80;61.60
46416;DHT22;32620;51.704;7.822;2022-09-01T15:44:51;24.80;62.00
46416;DHT22;32620;51.704;7.822;2022-09-01T15:47:17;24.60;63.30
46416;DHT22;32620;51.704;7.822;2022-09-01T15:49:42;24.60;63.60
46416;DHT22;32620;51.704;7.822;2022-09-01T15:52:08;24.40;64.00
46416;DHT22;32620;51.704;7.822;2022-09-01T15:54:36;24.30;64.80
46416;DHT22;32620;51.704;7.822;2022-09-01T15:57:02;24.40;65.50
46416;DHT22;32620;51.704;7.822;2022-09-01T15:59:27;24.40;65.40
46416;DHT22;32620;51.704;7.822;2022-09-01T16:01:53;24.40;65.20
46416;DHT22;32620;51.704;7.822;2022-09-01T16:04:19;24.40;65.70
46416;DHT22;32620;51.704;7.822;2022-09-01T16:06:44;24.40;65.70
46416;DHT22;32620;51.704;7.822;2022-09-01T16:09:10;24.30;65.70
46416;DHT22;32620;51.704;7.822;2022-09-01T16:11:36;24.00;66.20